Time;durP1;ratioP1;P1;durP2;ratioP2;P2;SDS_P1;SDS_P2;PMS_P1;PMS_P2;Temp;Humidity;BMP_temperature;BMP_pressure;BME280_temperature;BME280_humidity;BME280_pressure;Samples;Min_cycle;Max_cycle;Signal;HPM_P1;HPM_P2
2023/03/07 00:00:43;;;;;;;;;;;2.80;99.90;;;;;;4947166;28;20452;-71
2023/03/07 00:03:12;;;;;;;;;;;2.80;99.90;;;;;;4952792;28;19937;-70
2023/03/07 00:05:40;;;;;;;;;;;2.80;99.90;;;;;;4948495;28;19930;-71
2023/03/07 00:08:07;;;;;;;;;;;2.80;99.90;;;;;;4945811;28;19931;-71
2023/03/07 00:10:33;;;;;;;;;;;2.80;99.90;;;;;;4950894;28;20366;-71
2023/03/07 00:13:00;;;;;;;;;;;2.80;99.90;;;;;;4949803;28;19936;-71
2023/03/07 00:15:27;;;;;;;;;;;2.80;99.90;;;;;;4950862;28;19931;-71
2023/03/07 00:17:54;;;;;;;;;;;2.80;99.90;;;;;;4961572;28;20029;-71
2023/03/07 00:20:22;;;;;;;;;;;2.80;99.90;;;;;;4950920;28;19939;-68
2023/03/07 00:22:49;;;;;;;;;;;2.80;99.90;;;;;;4951078;28;19977;-70
2023/03/07 00:25:16;;;;;;;;;;;2.70;99.90;;;;;;4948643;28;20025;-71
2023/03/07 00:27:43;;;;;;;;;;;2.80;99.90;;;;;;4952417;28;19927;-70
2023/03/07 00:30:11;;;;;;;;;;;2.80;99.90;;;;;;4960335;28;19926;-70
2023/03/07 00:32:38;;;;;;;;;;;2.80;99.90;;;;;;4953161;28;19934;-71
2023/03/07 00:35:05;;;;;;;;;;;2.80;99.90;;;;;;4945821;28;19930;-70
2023/03/07 00:37:33;;;;;;;;;;;2.70;99.90;;;;;;4951497;28;19926;-70
2023/03/07 00:40:00;;;;;;;;;;;2.80;99.90;;;;;;4948668;28;20029;-70
2023/03/07 00:42:26;;;;;;;;;;;2.70;99.90;;;;;;4949209;28;20460;-70
2023/03/07 00:44:53;;;;;;;;;;;2.70;99.90;;;;;;4950275;28;19927;-71
2023/03/07 00:47:20;;;;;;;;;;;2.70;99.90;;;;;;4946215;28;19950;-71
2023/03/07 00:49:47;;;;;;;;;;;2.70;99.90;;;;;;4961282;28;19926;-70
2023/03/07 00:52:14;;;;;;;;;;;2.70;99.90;;;;;;4957637;28;19970;-71
2023/03/07 00:54:43;;;;;;;;;;;2.70;99.90;;;;;;4945678;28;20041;-70
2023/03/07 00:57:09;;;;;;;;;;;2.70;99.90;;;;;;4945292;28;19934;-71
2023/03/07 00:59:36;;;;;;;;;;;2.70;99.90;;;;;;4944837;28;20025;-70
2023/03/07 01:02:03;;;;;;;;;;;2.70;99.90;;;;;;4957923;28;19935;-71
2023/03/07 01:04:30;;;;;;;;;;;2.70;99.90;;;;;;4947804;28;20009;-71
2023/03/07 01:06:57;;;;;;;;;;;2.70;99.90;;;;;;4959970;28;19931;-70
2023/03/07 01:09:24;;;;;;;;;;;2.70;99.90;;;;;;4959539;28;19927;-70
2023/03/07 01:11:52;;;;;;;;;;;2.70;99.90;;;;;;4958588;28;19930;-71
2023/03/07 01:14:19;;;;;;;;;;;2.70;99.90;;;;;;4964136;28;20398;-71
2023/03/07 01:16:46;;;;;;;;;;;2.70;99.90;;;;;;4943199;28;19973;-70
2023/03/07 01:19:12;;;;;;;;;;;2.70;99.90;;;;;;4946540;28;19927;-72
2023/03/07 01:21:41;;;;;;;;;;;2.70;99.90;;;;;;4948021;28;19933;-71
2023/03/07 01:24:10;;;;;;;;;;;2.70;99.90;;;;;;4949788;28;20022;-71
2023/03/07 01:26:36;;;;;;;;;;;2.70;99.90;;;;;;4943552;28;19930;-71
2023/03/07 01:29:05;;;;;;;;;;;2.70;99.90;;;;;;4956633;28;20455;-70
2023/03/07 01:31:34;;;;;;;;;;;2.70;99.90;;;;;;4949270;28;19926;-71
2023/03/07 01:34:01;;;;;;;;;;;2.70;99.90;;;;;;4960298;28;19962;-70
2023/03/07 01:36:31;;;;;;;;;;;2.70;99.90;;;;;;4960877;28;20036;-70
2023/03/07 01:39:05;;;;;;;;;;;2.70;99.90;;;;;;4940349;28;19934;-71
2023/03/07 01:41:33;;;;;;;;;;;2.70;99.90;;;;;;4961287;28;20021;-71
2023/03/07 01:44:04;;;;;;;;;;;2.70;99.90;;;;;;4959117;28;20448;-71
2023/03/07 01:46:48;;;;;;;;;;;2.70;99.90;;;;;;4947512;28;20045;-70
2023/03/07 01:49:18;;;;;;;;;;;2.70;99.90;;;;;;4954929;28;19930;-70
2023/03/07 01:51:48;;;;;;;;;;;2.60;99.90;;;;;;4938407;28;19926;-70
2023/03/07 01:54:16;;;;;;;;;;;2.60;99.90;;;;;;4957269;28;19994;-70
2023/03/07 01:56:44;;;;;;;;;;;2.60;99.90;;;;;;4942531;28;20178;-70
2023/03/07 01:59:11;;;;;;;;;;;2.60;99.90;;;;;;4952906;28;20400;-71
2023/03/07 02:01:38;;;;;;;;;;;2.60;99.90;;;;;;4945620;28;19978;-71
2023/03/07 02:04:09;;;;;;;;;;;2.60;99.90;;;;;;4966349;28;20691;-71
2023/03/07 02:06:37;;;;;;;;;;;2.60;99.90;;;;;;4941301;28;19937;-73
2023/03/07 02:09:07;;;;;;;;;;;2.60;99.90;;;;;;4959036;28;20033;-71
2023/03/07 02:11:34;;;;;;;;;;;2.60;99.90;;;;;;4951541;28;22089;-71
2023/03/07 02:14:01;;;;;;;;;;;2.60;99.90;;;;;;4960944;28;19950;-70
2023/03/07 02:16:28;;;;;;;;;;;2.60;99.90;;;;;;4968323;28;20005;-71
2023/03/07 02:18:55;;;;;;;;;;;2.60;99.90;;;;;;4965879;28;19934;-70
2023/03/07 02:21:29;;;;;;;;;;;2.60;99.90;;;;;;4948641;28;19926;-71
2023/03/07 02:23:57;;;;;;;;;;;2.60;99.90;;;;;;4942415;28;19933;-71
2023/03/07 02:26:29;;;;;;;;;;;2.60;99.90;;;;;;4962088;28;19934;-71
2023/03/07 02:28:57;;;;;;;;;;;2.60;99.90;;;;;;4946550;28;19926;-71
2023/03/07 02:31:25;;;;;;;;;;;2.60;99.90;;;;;;4961843;28;19933;-70
2023/03/07 02:33:52;;;;;;;;;;;2.60;99.90;;;;;;4958218;28;21383;-71
2023/03/07 02:36:20;;;;;;;;;;;2.60;99.90;;;;;;4946877;28;19934;-71
2023/03/07 02:39:07;;;;;;;;;;;2.60;99.90;;;;;;4942669;28;19934;-71
2023/03/07 02:41:35;;;;;;;;;;;2.60;99.90;;;;;;4934646;28;20306;-70
2023/03/07 02:44:08;;;;;;;;;;;2.60;99.90;;;;;;4960681;28;19930;-71
2023/03/07 02:46:35;;;;;;;;;;;2.50;99.90;;;;;;4945638;28;20013;-71
2023/03/07 02:49:02;;;;;;;;;;;2.50;99.90;;;;;;4950232;28;19926;-71
2023/03/07 02:51:29;;;;;;;;;;;2.50;99.90;;;;;;4940764;28;20362;-71
2023/03/07 02:53:57;;;;;;;;;;;2.50;99.90;;;;;;4944063;28;19926;-70
2023/03/07 02:56:24;;;;;;;;;;;2.50;99.90;;;;;;4967939;28;19926;-71
2023/03/07 02:58:50;;;;;;;;;;;2.50;99.90;;;;;;4961460;28;20554;-70
2023/03/07 03:01:19;;;;;;;;;;;2.50;99.90;;;;;;4948804;28;19935;-71
2023/03/07 03:03:45;;;;;;;;;;;2.50;99.90;;;;;;4947662;28;19927;-71
2023/03/07 03:06:14;;;;;;;;;;;2.50;99.90;;;;;;4943922;28;19927;-71
2023/03/07 03:08:41;;;;;;;;;;;2.50;99.90;;;;;;4949090;28;20229;-71
2023/03/07 03:11:08;;;;;;;;;;;2.50;99.90;;;;;;4952001;28;19934;-72
2023/03/07 03:13:35;;;;;;;;;;;2.50;99.90;;;;;;4968181;28;20013;-73
2023/03/07 03:16:03;;;;;;;;;;;2.50;99.90;;;;;;4965023;28;19930;-75
2023/03/07 03:18:31;;;;;;;;;;;2.50;99.90;;;;;;4965902;28;19926;-74
2023/03/07 03:20:59;;;;;;;;;;;2.50;99.90;;;;;;4949897;28;20039;-73
2023/03/07 03:23:27;;;;;;;;;;;2.50;99.90;;;;;;4947147;28;19976;-73
2023/03/07 03:25:57;;;;;;;;;;;2.50;99.90;;;;;;4962722;28;20037;-76
2023/03/07 03:28:24;;;;;;;;;;;2.50;99.90;;;;;;4963740;28;19931;-73
2023/03/07 03:30:56;;;;;;;;;;;2.50;99.90;;;;;;4961488;28;20323;-74
2023/03/07 03:33:23;;;;;;;;;;;2.40;99.90;;;;;;4960259;28;20432;-75
2023/03/07 03:35:52;;;;;;;;;;;2.50;99.90;;;;;;4947272;28;20377;-72
2023/03/07 03:38:19;;;;;;;;;;;2.40;99.90;;;;;;4946007;28;19926;-73
2023/03/07 03:40:46;;;;;;;;;;;2.40;99.90;;;;;;4946642;28;19927;-76
2023/03/07 03:43:13;;;;;;;;;;;2.40;99.90;;;;;;4960475;28;19927;-73
2023/03/07 03:45:40;;;;;;;;;;;2.50;99.90;;;;;;4951319;28;19926;-72
2023/03/07 03:48:07;;;;;;;;;;;2.40;99.90;;;;;;4949059;28;19927;-74
2023/03/07 03:50:34;;;;;;;;;;;2.40;99.90;;;;;;4962803;28;19989;-74
2023/03/07 03:53:03;;;;;;;;;;;2.50;99.90;;;;;;4945000;28;19938;-74
2023/03/07 03:55:30;;;;;;;;;;;2.40;99.90;;;;;;4942922;28;19926;-72
2023/03/07 03:57:58;;;;;;;;;;;2.40;99.90;;;;;;4949771;28;19926;-73
2023/03/07 04:00:25;;;;;;;;;;;2.40;99.90;;;;;;4942394;28;20029;-74
2023/03/07 04:02:52;;;;;;;;;;;2.40;99.90;;;;;;4947362;28;20404;-73
2023/03/07 04:05:19;;;;;;;;;;;2.40;99.90;;;;;;4944641;28;19938;-73
2023/03/07 04:07:46;;;;;;;;;;;2.40;99.90;;;;;;4963671;28;19943;-73
2023/03/07 04:10:14;;;;;;;;;;;2.40;99.90;;;;;;4966304;28;20005;-72
2023/03/07 04:12:41;;;;;;;;;;;2.40;99.90;;;;;;4968121;28;19927;-72
2023/03/07 04:15:08;;;;;;;;;;;2.40;99.90;;;;;;4967314;28;20025;-72
2023/03/07 04:17:35;;;;;;;;;;;2.40;99.90;;;;;;4954270;28;19964;-74
2023/03/07 04:20:03;;;;;;;;;;;2.40;99.90;;;;;;4951128;28;19930;-75
2023/03/07 04:22:30;;;;;;;;;;;2.40;99.90;;;;;;4944884;28;19933;-73
2023/03/07 04:24:57;;;;;;;;;;;2.40;99.90;;;;;;4963276;28;19962;-75
2023/03/07 04:27:27;;;;;;;;;;;2.40;99.90;;;;;;4950859;28;19932;-74
2023/03/07 04:29:54;;;;;;;;;;;2.40;99.90;;;;;;4946449;28;19926;-74
2023/03/07 04:32:21;;;;;;;;;;;2.40;99.90;;;;;;4954276;28;20094;-75
2023/03/07 04:34:49;;;;;;;;;;;2.30;99.90;;;;;;4966149;28;19935;-72
2023/03/07 04:37:16;;;;;;;;;;;2.40;99.90;;;;;;4954042;28;19954;-74
2023/03/07 04:39:42;;;;;;;;;;;2.40;99.90;;;;;;4941796;28;19944;-74
2023/03/07 04:42:10;;;;;;;;;;;2.40;99.90;;;;;;4944942;28;19930;-72
2023/03/07 04:44:39;;;;;;;;;;;2.30;99.90;;;;;;4963471;28;19997;-71
2023/03/07 04:47:05;;;;;;;;;;;2.30;99.90;;;;;;4948451;28;20024;-71
2023/03/07 04:49:35;;;;;;;;;;;2.30;99.90;;;;;;4946113;28;20033;-70
2023/03/07 04:52:04;;;;;;;;;;;2.30;99.90;;;;;;4965060;28;20408;-70
2023/03/07 04:54:31;;;;;;;;;;;2.30;99.90;;;;;;4946303;28;20399;-71
2023/03/07 04:56:58;;;;;;;;;;;2.30;99.90;;;;;;4961359;28;19962;-71
2023/03/07 04:59:26;;;;;;;;;;;2.30;99.90;;;;;;4937290;28;19985;-70
2023/03/07 05:01:54;;;;;;;;;;;2.30;99.90;;;;;;4950960;28;19933;-70
2023/03/07 05:04:21;;;;;;;;;;;2.30;99.90;;;;;;4936046;28;19927;-70
2023/03/07 05:06:48;;;;;;;;;;;2.30;99.90;;;;;;4943908;28;19938;-71
2023/03/07 05:09:15;;;;;;;;;;;2.30;99.90;;;;;;4941652;28;19934;-71
2023/03/07 05:11:42;;;;;;;;;;;2.30;99.90;;;;;;4960698;28;20087;-70
2023/03/07 05:14:09;;;;;;;;;;;2.30;99.90;;;;;;4960199;28;20308;-70
2023/03/07 05:16:36;;;;;;;;;;;2.30;99.90;;;;;;4959072;28;20041;-70
2023/03/07 05:19:04;;;;;;;;;;;2.30;99.90;;;;;;4946128;28;20401;-70
2023/03/07 05:21:31;;;;;;;;;;;2.30;99.90;;;;;;4960126;28;20312;-70
2023/03/07 05:23:58;;;;;;;;;;;2.30;99.90;;;;;;4946364;28;19933;-71
2023/03/07 05:26:25;;;;;;;;;;;2.20;99.90;;;;;;4946666;28;19927;-70
2023/03/07 05:28:52;;;;;;;;;;;2.30;99.90;;;;;;4961828;28;19934;-71
2023/03/07 05:31:19;;;;;;;;;;;2.30;99.90;;;;;;4947884;28;20004;-70
2023/03/07 05:33:46;;;;;;;;;;;2.20;99.90;;;;;;4958594;28;19927;-70
2023/03/07 05:36:15;;;;;;;;;;;2.20;99.90;;;;;;4947154;28;19934;-71
2023/03/07 05:38:42;;;;;;;;;;;2.20;99.90;;;;;;4963855;28;19931;-74
2023/03/07 05:41:09;;;;;;;;;;;2.20;99.90;;;;;;4942414;28;20359;-72
2023/03/07 05:43:37;;;;;;;;;;;2.20;99.90;;;;;;4967237;28;20016;-72
2023/03/07 05:46:04;;;;;;;;;;;2.20;99.90;;;;;;4973625;28;19935;-70
2023/03/07 05:48:30;;;;;;;;;;;2.20;99.90;;;;;;4948132;28;19954;-71
2023/03/07 05:50:58;;;;;;;;;;;2.20;99.90;;;;;;4942562;28;20336;-73
2023/03/07 05:53:28;;;;;;;;;;;2.20;99.90;;;;;;4944116;28;21368;-72
2023/03/07 05:55:55;;;;;;;;;;;2.20;99.90;;;;;;4946135;28;19941;-74
2023/03/07 05:58:23;;;;;;;;;;;2.20;99.90;;;;;;4961469;28;19932;-73
2023/03/07 06:00:50;;;;;;;;;;;2.20;99.90;;;;;;4949119;28;19935;-72
2023/03/07 06:03:18;;;;;;;;;;;2.20;99.90;;;;;;4946352;28;19962;-72
2023/03/07 06:05:48;;;;;;;;;;;2.20;99.90;;;;;;4963973;28;19981;-73
2023/03/07 06:08:15;;;;;;;;;;;2.10;99.90;;;;;;4944220;28;20309;-72
2023/03/07 06:10:43;;;;;;;;;;;2.10;99.90;;;;;;4949367;28;19953;-74
2023/03/07 06:13:15;;;;;;;;;;;2.10;99.90;;;;;;4964824;28;20355;-73
2023/03/07 06:15:42;;;;;;;;;;;2.10;99.90;;;;;;4960100;28;19954;-72
2023/03/07 06:18:09;;;;;;;;;;;2.10;99.90;;;;;;4945033;28;19977;-74
2023/03/07 06:20:36;;;;;;;;;;;2.10;99.90;;;;;;4962894;28;21116;-74
2023/03/07 06:23:03;;;;;;;;;;;2.10;99.90;;;;;;4957648;28;19934;-73
2023/03/07 06:25:30;;;;;;;;;;;2.10;99.90;;;;;;4959402;28;20138;-72
2023/03/07 06:28:00;;;;;;;;;;;2.10;99.90;;;;;;4949986;28;20608;-73
2023/03/07 06:30:28;;;;;;;;;;;2.10;99.90;;;;;;4965638;28;20238;-72
2023/03/07 06:32:55;;;;;;;;;;;2.10;99.90;;;;;;4946871;28;19961;-73
2023/03/07 06:35:22;;;;;;;;;;;2.10;99.90;;;;;;4939689;28;19930;-72
2023/03/07 06:37:50;;;;;;;;;;;2.10;99.90;;;;;;4969127;28;20022;-73
2023/03/07 06:40:18;;;;;;;;;;;2.10;99.90;;;;;;4941983;28;19939;-73
2023/03/07 06:42:44;;;;;;;;;;;2.10;99.90;;;;;;4950532;28;19934;-73
2023/03/07 06:45:13;;;;;;;;;;;2.10;99.90;;;;;;4957143;28;19926;-75
2023/03/07 06:47:40;;;;;;;;;;;2.10;99.90;;;;;;4952679;28;19927;-73
2023/03/07 06:50:09;;;;;;;;;;;2.10;99.90;;;;;;4949512;28;19930;-73
2023/03/07 06:52:36;;;;;;;;;;;2.10;99.90;;;;;;4967810;28;19933;-72
2023/03/07 06:55:04;;;;;;;;;;;2.10;99.90;;;;;;4952750;28;19931;-72
2023/03/07 06:57:33;;;;;;;;;;;2.10;99.90;;;;;;4950310;28;20653;-73
2023/03/07 07:00:00;;;;;;;;;;;2.10;99.90;;;;;;4967100;28;19934;-72
2023/03/07 07:02:31;;;;;;;;;;;2.10;99.90;;;;;;4965962;28;20475;-73
2023/03/07 07:04:58;;;;;;;;;;;2.10;99.90;;;;;;4967591;28;19954;-73
2023/03/07 07:07:25;;;;;;;;;;;2.10;99.90;;;;;;4956126;28;19938;-73
2023/03/07 07:09:52;;;;;;;;;;;2.10;99.90;;;;;;4970442;28;19933;-72
2023/03/07 07:12:19;;;;;;;;;;;2.00;99.90;;;;;;4967341;28;19934;-72
2023/03/07 07:14:47;;;;;;;;;;;2.00;99.90;;;;;;4968678;28;20447;-73
2023/03/07 07:17:15;;;;;;;;;;;2.00;99.90;;;;;;4956086;28;19989;-73
2023/03/07 07:19:43;;;;;;;;;;;2.10;99.90;;;;;;4952912;28;19930;-73
2023/03/07 07:22:10;;;;;;;;;;;2.00;99.90;;;;;;4968151;28;19930;-73
2023/03/07 07:24:38;;;;;;;;;;;2.00;99.90;;;;;;4950494;28;19953;-72
2023/03/07 07:27:06;;;;;;;;;;;2.00;99.90;;;;;;4951924;28;19931;-74
2023/03/07 07:29:33;;;;;;;;;;;2.00;99.90;;;;;;4952709;28;19961;-73
2023/03/07 07:32:00;;;;;;;;;;;2.00;99.90;;;;;;4964786;28;19930;-73
2023/03/07 07:34:28;;;;;;;;;;;2.00;99.90;;;;;;4952637;28;20320;-73
2023/03/07 07:36:56;;;;;;;;;;;2.00;99.90;;;;;;4955244;28;20025;-72
2023/03/07 07:39:23;;;;;;;;;;;2.00;99.90;;;;;;4952629;28;20277;-73
2023/03/07 07:41:50;;;;;;;;;;;2.00;99.90;;;;;;4949889;28;20402;-72
2023/03/07 07:44:19;;;;;;;;;;;2.00;99.90;;;;;;4952382;28;19954;-72
2023/03/07 07:46:54;;;;;;;;;;;2.00;99.90;;;;;;4967830;28;20285;-73
2023/03/07 07:49:21;;;;;;;;;;;2.00;99.90;;;;;;4948534;28;19926;-73
2023/03/07 07:51:48;;;;;;;;;;;2.00;99.90;;;;;;4953677;28;19958;-73
2023/03/07 07:54:16;;;;;;;;;;;2.00;99.90;;;;;;4952010;28;19941;-73
2023/03/07 07:56:43;;;;;;;;;;;2.10;99.90;;;;;;4947587;28;20344;-75
2023/03/07 07:59:10;;;;;;;;;;;2.10;99.90;;;;;;4952340;28;19941;-73
2023/03/07 08:01:37;;;;;;;;;;;2.10;99.90;;;;;;4967486;28;20400;-73
2023/03/07 08:04:04;;;;;;;;;;;2.10;99.90;;;;;;4951742;28;20082;-73
2023/03/07 08:06:31;;;;;;;;;;;2.10;99.90;;;;;;4956919;28;20020;-74
2023/03/07 08:08:58;;;;;;;;;;;2.10;99.90;;;;;;4956013;28;19950;-73
2023/03/07 08:11:27;;;;;;;;;;;2.10;99.90;;;;;;4955450;28;20025;-74
2023/03/07 08:13:53;;;;;;;;;;;2.10;99.90;;;;;;4952815;28;19932;-73
2023/03/07 08:16:21;;;;;;;;;;;2.10;99.90;;;;;;4954389;28;19965;-73
2023/03/07 08:18:49;;;;;;;;;;;2.10;99.90;;;;;;4963453;28;19930;-73
2023/03/07 08:21:15;;;;;;;;;;;2.10;99.90;;;;;;4957295;28;19978;-74
2023/03/07 08:23:42;;;;;;;;;;;2.10;99.90;;;;;;4951837;28;19931;-73
2023/03/07 08:26:12;;;;;;;;;;;2.10;99.90;;;;;;4959738;28;19933;-71
2023/03/07 08:28:40;;;;;;;;;;;2.10;99.90;;;;;;4954608;28;20001;-71
2023/03/07 08:31:07;;;;;;;;;;;2.10;99.90;;;;;;4949334;28;19934;-70
2023/03/07 08:33:34;;;;;;;;;;;2.10;99.90;;;;;;4949202;28;19963;-70
2023/03/07 08:36:01;;;;;;;;;;;2.10;99.90;;;;;;4949406;28;19927;-71
2023/03/07 08:38:28;;;;;;;;;;;2.20;99.90;;;;;;4945692;28;19974;-71
2023/03/07 08:40:58;;;;;;;;;;;2.20;99.90;;;;;;4948698;28;19926;-71
2023/03/07 08:43:25;;;;;;;;;;;2.20;99.90;;;;;;4951928;28;19965;-71
2023/03/07 08:45:53;;;;;;;;;;;2.20;99.90;;;;;;4950540;28;20017;-72
2023/03/07 08:48:20;;;;;;;;;;;2.20;99.90;;;;;;4964519;28;19941;-70
2023/03/07 08:50:47;;;;;;;;;;;2.20;99.90;;;;;;4968225;28;19937;-70
2023/03/07 08:53:14;;;;;;;;;;;2.30;99.90;;;;;;4950842;28;20393;-71
2023/03/07 08:55:42;;;;;;;;;;;2.30;99.90;;;;;;4950682;28;19927;-70
2023/03/07 08:58:09;;;;;;;;;;;2.30;99.90;;;;;;4969016;28;19972;-71
2023/03/07 09:00:36;;;;;;;;;;;2.30;99.90;;;;;;4950833;28;19927;-71
2023/03/07 09:03:04;;;;;;;;;;;2.30;99.90;;;;;;4951847;28;20463;-70
2023/03/07 09:05:31;;;;;;;;;;;2.30;99.90;;;;;;4948158;28;19965;-71
2023/03/07 09:07:58;;;;;;;;;;;2.40;99.90;;;;;;4951154;28;19926;-71
2023/03/07 09:10:26;;;;;;;;;;;2.40;99.90;;;;;;4947720;28;20021;-71
2023/03/07 09:12:54;;;;;;;;;;;2.40;99.90;;;;;;4949473;28;19930;-71
2023/03/07 09:15:21;;;;;;;;;;;2.40;99.90;;;;;;4974029;28;19926;-71
2023/03/07 09:17:47;;;;;;;;;;;2.40;99.90;;;;;;4991440;28;19914;-70
2023/03/07 09:20:16;;;;;;;;;;;2.40;99.90;;;;;;4971076;28;19973;-71
2023/03/07 09:22:44;;;;;;;;;;;2.40;99.90;;;;;;4945958;28;19970;-70
2023/03/07 09:25:11;;;;;;;;;;;2.40;99.90;;;;;;4948479;28;20400;-70
2023/03/07 09:27:38;;;;;;;;;;;2.40;99.90;;;;;;4951565;28;19934;-70
2023/03/07 09:30:05;;;;;;;;;;;2.50;99.90;;;;;;4949155;28;20344;-73
2023/03/07 09:32:32;;;;;;;;;;;2.50;99.90;;;;;;4946203;28;19930;-73
2023/03/07 09:34:59;;;;;;;;;;;2.50;99.90;;;;;;4962842;28;19927;-74
2023/03/07 09:37:27;;;;;;;;;;;2.60;99.90;;;;;;4948274;28;20013;-73
2023/03/07 09:39:53;;;;;;;;;;;2.60;99.90;;;;;;4951158;28;20400;-73
2023/03/07 09:42:24;;;;;;;;;;;2.60;99.90;;;;;;4952096;28;19950;-72
2023/03/07 09:45:02;;;;;;;;;;;2.60;99.90;;;;;;4944962;28;19985;-73
2023/03/07 09:47:58;;;;;;;;;;;2.60;99.90;;;;;;4949887;28;19933;-73
2023/03/07 09:50:28;;;;;;;;;;;2.60;99.90;;;;;;4956590;28;20489;-73
2023/03/07 09:53:00;;;;;;;;;;;2.60;99.90;;;;;;4948838;28;19930;-74
2023/03/07 09:55:27;;;;;;;;;;;2.70;99.90;;;;;;4948970;28;19926;-71
2023/03/07 09:57:55;;;;;;;;;;;2.70;99.90;;;;;;4947879;28;20531;-71
2023/03/07 10:00:26;;;;;;;;;;;2.70;99.90;;;;;;4948889;28;20425;-70
2023/03/07 10:02:54;;;;;;;;;;;2.70;99.90;;;;;;4947083;28;19937;-70
2023/03/07 10:05:26;;;;;;;;;;;2.80;99.90;;;;;;4966232;28;20444;-70
2023/03/07 10:07:54;;;;;;;;;;;2.80;99.90;;;;;;4956505;28;19974;-70
2023/03/07 10:10:23;;;;;;;;;;;2.80;99.90;;;;;;4951189;28;20013;-71
2023/03/07 10:12:56;;;;;;;;;;;2.80;99.90;;;;;;4960569;28;20021;-71
2023/03/07 10:15:41;;;;;;;;;;;2.80;99.90;;;;;;4950225;28;20017;-71
2023/03/07 10:18:15;;;;;;;;;;;2.90;99.90;;;;;;4951852;28;19935;-71
2023/03/07 10:20:45;;;;;;;;;;;2.90;99.90;;;;;;4950197;28;19986;-71
2023/03/07 10:23:20;;;;;;;;;;;2.90;99.90;;;;;;4953590;28;20419;-68
2023/03/07 10:25:52;;;;;;;;;;;3.00;99.90;;;;;;4950735;28;20091;-70
2023/03/07 10:28:22;;;;;;;;;;;3.00;99.90;;;;;;4953299;28;19927;-71
2023/03/07 10:30:50;;;;;;;;;;;3.00;99.90;;;;;;4950132;28;19933;-71
2023/03/07 10:33:17;;;;;;;;;;;3.00;99.90;;;;;;4957516;28;20201;-71
2023/03/07 10:35:48;;;;;;;;;;;3.00;99.90;;;;;;4967705;28;20336;-71
2023/03/07 10:38:18;;;;;;;;;;;3.00;99.90;;;;;;4950775;28;19941;-71
2023/03/07 10:40:48;;;;;;;;;;;3.00;99.90;;;;;;4951832;28;20430;-71
2023/03/07 10:43:20;;;;;;;;;;;3.10;99.90;;;;;;4965956;28;20005;-71
2023/03/07 10:45:47;;;;;;;;;;;3.10;99.90;;;;;;4956218;28;20360;-71
2023/03/07 10:48:16;;;;;;;;;;;3.20;99.90;;;;;;4957515;28;19949;-70
2023/03/07 10:50:45;;;;;;;;;;;3.20;99.90;;;;;;4951428;28;19926;-71
2023/03/07 10:53:21;;;;;;;;;;;3.20;99.90;;;;;;4943067;28;20377;-70
2023/03/07 10:55:48;;;;;;;;;;;3.20;99.90;;;;;;4954001;28;19930;-71
2023/03/07 10:58:18;;;;;;;;;;;3.30;99.90;;;;;;4952343;28;20319;-71
2023/03/07 11:00:46;;;;;;;;;;;3.30;99.90;;;;;;4952919;28;19983;-71
2023/03/07 11:03:25;;;;;;;;;;;3.30;99.90;;;;;;4952262;28;20418;-71
2023/03/07 11:05:52;;;;;;;;;;;3.40;99.90;;;;;;4953868;28;19932;-70
2023/03/07 11:08:25;;;;;;;;;;;3.40;99.90;;;;;;4956767;28;19927;-71
2023/03/07 11:10:52;;;;;;;;;;;3.40;99.90;;;;;;4951671;28;19977;-71
2023/03/07 11:13:21;;;;;;;;;;;3.40;99.90;;;;;;4953890;28;20017;-70
2023/03/07 11:15:48;;;;;;;;;;;3.40;99.90;;;;;;4951571;28;19930;-71
2023/03/07 11:18:29;;;;;;;;;;;3.40;99.90;;;;;;4954290;28;19933;-71
2023/03/07 11:20:57;;;;;;;;;;;3.50;99.90;;;;;;4966200;28;19926;-71
2023/03/07 11:23:25;;;;;;;;;;;3.50;99.90;;;;;;4943703;28;20432;-71
2023/03/07 11:25:52;;;;;;;;;;;3.50;99.90;;;;;;4951341;28;19934;-71
2023/03/07 11:28:26;;;;;;;;;;;3.50;99.90;;;;;;4950924;28;19935;-71
2023/03/07 11:30:53;;;;;;;;;;;3.60;99.90;;;;;;4966526;28;20475;-74
2023/03/07 11:33:24;;;;;;;;;;;3.60;99.90;;;;;;4946768;28;19965;-73
2023/03/07 11:35:57;;;;;;;;;;;3.70;99.90;;;;;;4951797;28;19926;-74
2023/03/07 11:38:28;;;;;;;;;;;3.70;99.90;;;;;;4950074;28;19926;-74
2023/03/07 11:41:00;;;;;;;;;;;3.70;99.90;;;;;;4952470;28;19998;-72
2023/03/07 11:43:36;;;;;;;;;;;3.70;99.90;;;;;;4952689;28;19930;-73
2023/03/07 11:46:06;;;;;;;;;;;3.80;99.90;;;;;;4949763;28;20688;-73
2023/03/07 11:48:39;;;;;;;;;;;3.80;99.90;;;;;;4953111;29;19926;-75
2023/03/07 11:51:11;;;;;;;;;;;3.80;99.90;;;;;;4951628;28;19930;-72
2023/03/07 11:53:53;;;;;;;;;;;3.90;99.90;;;;;;4947507;28;20038;-73
2023/03/07 11:56:23;;;;;;;;;;;3.90;99.90;;;;;;4964512;28;20025;-73
2023/03/07 11:59:03;;;;;;;;;;;3.90;99.90;;;;;;4951449;28;19934;-73
2023/03/07 12:01:32;;;;;;;;;;;3.90;99.90;;;;;;4948269;28;19961;-73
2023/03/07 12:04:06;;;;;;;;;;;4.00;99.90;;;;;;4952480;28;20634;-73
2023/03/07 12:06:35;;;;;;;;;;;4.10;99.90;;;;;;4952210;28;19981;-73
2023/03/07 12:09:12;;;;;;;;;;;4.00;99.90;;;;;;4952785;28;20012;-74
2023/03/07 12:11:47;;;;;;;;;;;4.00;99.90;;;;;;4949405;28;19926;-73
2023/03/07 12:14:21;;;;;;;;;;;4.00;99.90;;;;;;4955904;28;19966;-72
2023/03/07 12:16:52;;;;;;;;;;;4.00;99.90;;;;;;4945651;28;20017;-72
2023/03/07 12:19:29;;;;;;;;;;;4.10;99.90;;;;;;4950463;28;19926;-75
2023/03/07 12:22:08;;;;;;;;;;;4.00;99.90;;;;;;4950566;28;19932;-75
2023/03/07 12:24:38;;;;;;;;;;;4.00;99.90;;;;;;4948278;28;19985;-73
2023/03/07 12:27:10;;;;;;;;;;;4.00;99.90;;;;;;4949623;28;19935;-73
2023/03/07 12:29:41;;;;;;;;;;;4.00;99.90;;;;;;4951380;28;19946;-73
2023/03/07 12:32:09;;;;;;;;;;;4.00;99.90;;;;;;4954510;28;19970;-72
2023/03/07 12:34:38;;;;;;;;;;;4.00;99.90;;;;;;4947101;28;19978;-73
2023/03/07 12:37:06;;;;;;;;;;;4.00;99.90;;;;;;4949999;28;20048;-73
2023/03/07 12:39:38;;;;;;;;;;;4.10;99.90;;;;;;4955041;28;20312;-73
2023/03/07 12:42:10;;;;;;;;;;;4.10;99.90;;;;;;4955232;28;20475;-73
2023/03/07 12:44:40;;;;;;;;;;;4.10;99.90;;;;;;4948256;28;19927;-72
2023/03/07 12:47:14;;;;;;;;;;;4.10;99.90;;;;;;4954362;28;19966;-73
2023/03/07 12:49:44;;;;;;;;;;;4.10;99.90;;;;;;4969053;28;20001;-73
2023/03/07 12:52:14;;;;;;;;;;;4.20;99.90;;;;;;4948548;28;20504;-73
2023/03/07 12:54:44;;;;;;;;;;;4.20;99.90;;;;;;4948610;28;19926;-73
2023/03/07 12:57:15;;;;;;;;;;;4.20;99.90;;;;;;4958313;28;20426;-74
2023/03/07 12:59:44;;;;;;;;;;;4.30;99.90;;;;;;4947677;28;19946;-72
2023/03/07 13:02:12;;;;;;;;;;;4.30;99.90;;;;;;4948526;28;19972;-75
2023/03/07 13:04:39;;;;;;;;;;;4.30;99.90;;;;;;4951483;28;20407;-73
2023/03/07 13:07:08;;;;;;;;;;;4.40;99.90;;;;;;4949894;28;19930;-73
2023/03/07 13:09:36;;;;;;;;;;;4.40;99.90;;;;;;4948648;28;19927;-72
2023/03/07 13:12:25;;;;;;;;;;;4.40;99.90;;;;;;4950055;28;19934;-73
2023/03/07 13:14:54;;;;;;;;;;;4.40;99.90;;;;;;4943939;28;20048;-73
2023/03/07 13:17:40;;;;;;;;;;;4.40;99.90;;;;;;4947431;28;20356;-73
2023/03/07 13:20:22;;;;;;;;;;;4.40;99.90;;;;;;4949592;28;20021;-75
2023/03/07 13:23:06;;;;;;;;;;;4.50;99.90;;;;;;4957803;28;20026;-74
2023/03/07 13:25:46;;;;;;;;;;;4.60;99.90;;;;;;4943162;28;20312;-74
2023/03/07 13:28:32;;;;;;;;;;;4.60;99.90;;;;;;4947250;28;19930;-74
2023/03/07 13:31:25;;;;;;;;;;;4.60;99.90;;;;;;4952669;28;19973;-73
2023/03/07 13:33:52;;;;;;;;;;;4.60;99.90;;;;;;4948334;28;19941;-75
2023/03/07 13:36:32;;;;;;;;;;;4.70;99.90;;;;;;4946030;28;19935;-74
2023/03/07 13:38:59;;;;;;;;;;;4.80;99.90;;;;;;4945850;28;19953;-74
2023/03/07 13:41:43;;;;;;;;;;;4.80;99.90;;;;;;4948613;28;19989;-73
2023/03/07 13:44:26;;;;;;;;;;;4.90;99.90;;;;;;4943000;28;20013;-74
2023/03/07 13:47:00;;;;;;;;;;;4.90;99.90;;;;;;4948057;28;21378;-74
2023/03/07 13:49:47;;;;;;;;;;;4.90;99.90;;;;;;4951029;28;19970;-75
2023/03/07 13:52:32;;;;;;;;;;;5.00;99.90;;;;;;4946543;28;19969;-73
2023/03/07 13:55:00;;;;;;;;;;;4.90;99.90;;;;;;4950629;28;19973;-74
2023/03/07 13:57:31;;;;;;;;;;;4.90;99.90;;;;;;4950936;28;19945;-74
2023/03/07 13:59:58;;;;;;;;;;;4.90;99.90;;;;;;4949334;28;20017;-73
2023/03/07 14:02:26;;;;;;;;;;;4.90;99.90;;;;;;4947240;28;19934;-75
2023/03/07 14:04:57;;;;;;;;;;;5.00;99.90;;;;;;4949228;28;19949;-73
2023/03/07 14:07:26;;;;;;;;;;;5.00;99.90;;;;;;4949799;28;19926;-73
2023/03/07 14:09:55;;;;;;;;;;;5.00;99.90;;;;;;4960899;28;19926;-74
2023/03/07 14:12:27;;;;;;;;;;;5.00;99.90;;;;;;4942461;28;19962;-73
2023/03/07 14:15:00;;;;;;;;;;;5.10;99.90;;;;;;4952926;28;19926;-73
2023/03/07 14:17:35;;;;;;;;;;;5.10;99.90;;;;;;4950468;28;19933;-77
2023/03/07 14:20:08;;;;;;;;;;;5.10;99.90;;;;;;4948263;28;19966;-76
2023/03/07 14:22:40;;;;;;;;;;;5.10;99.90;;;;;;4950411;28;19927;-73
2023/03/07 14:25:13;;;;;;;;;;;5.10;99.90;;;;;;4946545;28;19935;-77
2023/03/07 14:27:49;;;;;;;;;;;5.10;99.90;;;;;;4949245;28;19934;-76
2023/03/07 14:30:16;;;;;;;;;;;5.20;99.90;;;;;;4951547;28;20301;-74
2023/03/07 14:32:44;;;;;;;;;;;5.10;99.90;;;;;;4964768;28;19966;-74
2023/03/07 14:35:14;;;;;;;;;;;5.20;99.90;;;;;;4951789;28;19981;-73
2023/03/07 14:37:42;;;;;;;;;;;5.20;99.90;;;;;;4945668;28;19934;-73
2023/03/07 14:40:17;;;;;;;;;;;5.20;99.90;;;;;;4951370;28;19927;-73
2023/03/07 14:42:46;;;;;;;;;;;5.20;99.90;;;;;;4948958;28;19934;-73